createdAt,value
2023-01-31T00:01:49.156Z,88.60
2023-01-31T00:04:17.664Z,88.40
2023-01-31T00:06:51.725Z,89.10
2023-01-31T00:09:19.633Z,89.40
2023-01-31T00:11:46.885Z,90.30
2023-01-31T00:14:19.876Z,90.60
2023-01-31T00:16:47.535Z,90.80
2023-01-31T00:19:15.045Z,91.00
2023-01-31T00:21:43.992Z,91.20
2023-01-31T00:24:14.686Z,91.40
2023-01-31T00:26:42.909Z,91.50
2023-01-31T00:29:10.464Z,91.60
2023-01-31T00:31:40.070Z,91.50
2023-01-31T00:34:07.910Z,91.50
2023-01-31T00:36:35.972Z,91.50
2023-01-31T00:39:06.442Z,91.40
2023-01-31T00:41:37.516Z,91.30
2023-01-31T00:44:06.984Z,91.30
2023-01-31T00:46:35.156Z,91.10
2023-01-31T00:49:03.928Z,91.00
2023-01-31T00:51:31.712Z,91.00
2023-01-31T00:54:01.999Z,91.00
2023-01-31T00:56:30.684Z,91.00
2023-01-31T00:58:58.228Z,91.00
2023-01-31T01:01:28.007Z,90.90
2023-01-31T01:03:57.277Z,90.80
2023-01-31T01:06:25.861Z,90.60
2023-01-31T01:08:54.570Z,90.60
2023-01-31T01:11:30.532Z,90.50
2023-01-31T01:13:59.973Z,90.40
2023-01-31T01:16:34.379Z,90.20
2023-01-31T01:19:06.515Z,90.10
2023-01-31T01:21:39.096Z,90.10
2023-01-31T01:24:11.977Z,90.00
2023-01-31T01:26:40.437Z,89.90
2023-01-31T01:29:08.113Z,89.80
2023-01-31T01:31:36.045Z,89.90
2023-01-31T01:34:12.776Z,90.00
2023-01-31T01:36:40.405Z,90.10
2023-01-31T01:39:11.655Z,90.10
2023-01-31T01:41:40.538Z,90.20
2023-01-31T01:44:42.864Z,90.10
2023-01-31T01:47:16.383Z,90.20
2023-01-31T01:49:47.879Z,90.20
2023-01-31T01:52:16.396Z,90.30
2023-01-31T01:55:12.036Z,90.30
2023-01-31T01:57:43.300Z,90.30
2023-01-31T02:00:19.900Z,90.60
2023-01-31T02:02:49.330Z,90.30
2023-01-31T02:05:24.526Z,90.20
2023-01-31T02:07:52.414Z,90.10
2023-01-31T02:10:38.331Z,90.10
2023-01-31T02:13:07.808Z,90.00
2023-01-31T02:15:36.006Z,90.10
2023-01-31T02:18:05.592Z,90.30
2023-01-31T02:21:02.093Z,90.60
2023-01-31T02:24:14.478Z,90.90
2023-01-31T02:27:09.497Z,91.20
2023-01-31T02:30:14.508Z,91.30
2023-01-31T02:33:02.704Z,91.40
2023-01-31T02:35:40.154Z,91.50
2023-01-31T02:38:36.806Z,91.40
2023-01-31T02:41:42.818Z,91.40
2023-01-31T02:45:00.475Z,91.50
2023-01-31T02:47:51.899Z,91.40
2023-01-31T02:50:42.671Z,91.40
2023-01-31T02:53:16.759Z,91.50
2023-01-31T02:56:18.122Z,91.50
2023-01-31T02:58:49.755Z,91.40
2023-01-31T03:01:23.331Z,91.20
2023-01-31T03:03:53.191Z,91.00
2023-01-31T03:06:33.378Z,91.00
2023-01-31T03:09:25.178Z,90.70
2023-01-31T03:12:11.980Z,91.00
2023-01-31T03:14:48.176Z,90.50
2023-01-31T03:17:43.117Z,90.40
2023-01-31T03:20:41.473Z,90.30
2023-01-31T03:23:16.335Z,90.20
2023-01-31T03:25:45.204Z,90.20
2023-01-31T03:28:18.124Z,90.20
2023-01-31T03:31:04.864Z,90.20
2023-01-31T03:33:36.925Z,90.30
2023-01-31T03:36:34.032Z,90.30
2023-01-31T03:39:22.472Z,90.40
2023-01-31T03:42:09.255Z,90.50
2023-01-31T03:45:02.611Z,90.70
2023-01-31T03:47:43.359Z,90.80
2023-01-31T03:50:26.020Z,90.80
2023-01-31T03:53:09.400Z,90.70
2023-01-31T03:55:58.278Z,90.60
2023-01-31T03:58:30.537Z,90.50
2023-01-31T04:01:01.907Z,90.30
2023-01-31T04:03:46.356Z,90.30
2023-01-31T04:06:14.665Z,90.20
2023-01-31T04:08:42.982Z,90.20
2023-01-31T04:11:14.343Z,90.20
2023-01-31T04:13:42.983Z,90.20
2023-01-31T04:16:10.317Z,90.20
2023-01-31T04:18:38.685Z,90.10
2023-01-31T04:21:06.773Z,90.00
2023-01-31T04:23:34.172Z,90.00
2023-01-31T04:26:02.261Z,89.80
2023-01-31T04:28:29.565Z,89.50
2023-01-31T04:30:59.086Z,89.20
2023-01-31T04:33:26.536Z,89.20
2023-01-31T04:35:53.920Z,89.80
2023-01-31T04:38:21.379Z,88.60
2023-01-31T04:40:48.944Z,89.20
2023-01-31T04:43:17.281Z,88.70
2023-01-31T04:45:45.062Z,88.30
2023-01-31T04:48:13.387Z,88.30
2023-01-31T04:50:40.848Z,88.40
2023-01-31T04:53:09.459Z,88.70
2023-01-31T04:55:37.069Z,88.90
2023-01-31T04:58:06.611Z,89.20
2023-01-31T05:00:34.351Z,89.40
2023-01-31T05:03:02.293Z,89.40
2023-01-31T05:05:29.670Z,89.40
2023-01-31T05:07:58.100Z,89.50
2023-01-31T05:10:25.574Z,89.50
2023-01-31T05:12:53.192Z,89.40
2023-01-31T05:15:21.923Z,89.30
2023-01-31T05:18:04.901Z,89.00
2023-01-31T05:20:38.630Z,88.50
2023-01-31T05:23:06.165Z,88.50
2023-01-31T05:25:34.895Z,88.60
2023-01-31T05:28:02.425Z,88.50
2023-01-31T05:30:31.333Z,88.50
2023-01-31T05:32:58.863Z,88.20
2023-01-31T05:35:26.346Z,87.90
2023-01-31T05:37:57.057Z,87.20
2023-01-31T05:40:24.556Z,87.10
2023-01-31T05:43:01.828Z,86.40
2023-01-31T05:45:29.813Z,86.10
2023-01-31T05:47:57.963Z,85.70
2023-01-31T05:50:25.780Z,85.70
2023-01-31T05:52:54.926Z,85.80
2023-01-31T05:55:22.986Z,84.90
2023-01-31T05:57:52.270Z,84.40
2023-01-31T06:00:20.191Z,84.30
2023-01-31T06:02:48.276Z,84.10
2023-01-31T06:05:16.468Z,84.30
2023-01-31T06:07:43.818Z,84.60
2023-01-31T06:10:11.954Z,84.20
2023-01-31T06:12:39.543Z,84.30
2023-01-31T06:15:07.291Z,84.70
2023-01-31T06:17:34.884Z,84.80
2023-01-31T06:20:03.594Z,84.90
2023-01-31T06:22:31.584Z,85.20
2023-01-31T06:24:59.530Z,85.40
2023-01-31T06:27:27.373Z,85.60
2023-01-31T06:29:55.047Z,85.80
2023-01-31T06:32:23.100Z,86.20
2023-01-31T06:34:50.530Z,86.40
2023-01-31T06:37:17.931Z,86.40
2023-01-31T06:39:45.186Z,86.50
2023-01-31T06:42:12.490Z,86.50
2023-01-31T06:44:39.935Z,86.80
2023-01-31T06:47:07.407Z,87.00
2023-01-31T06:49:35.075Z,87.20
2023-01-31T06:52:02.334Z,87.30
2023-01-31T06:54:30.480Z,87.40
2023-01-31T06:56:58.111Z,87.70
2023-01-31T06:59:25.570Z,87.40
2023-01-31T07:01:53.480Z,87.60
2023-01-31T07:04:20.846Z,88.40
2023-01-31T07:06:48.201Z,87.80
2023-01-31T07:09:15.488Z,88.60
2023-01-31T07:11:42.839Z,88.00
2023-01-31T07:14:10.190Z,87.80
2023-01-31T07:16:38.250Z,87.80
2023-01-31T07:19:05.764Z,87.80
2023-01-31T07:21:33.549Z,88.00
2023-01-31T07:24:00.911Z,88.20
2023-01-31T07:26:28.216Z,88.20
2023-01-31T07:28:55.930Z,88.40
2023-01-31T07:31:23.227Z,88.40
2023-01-31T07:33:52.451Z,88.10
2023-01-31T07:36:24.868Z,87.90
2023-01-31T07:38:57.275Z,87.90
2023-01-31T07:41:25.573Z,87.70
2023-01-31T07:43:53.088Z,87.20
2023-01-31T07:46:20.506Z,86.90
2023-01-31T07:48:48.330Z,86.90
2023-01-31T07:51:15.951Z,86.20
2023-01-31T07:53:44.154Z,85.90
2023-01-31T07:56:15.676Z,84.50
2023-01-31T07:58:44.717Z,83.70
2023-01-31T08:01:37.575Z,83.10
2023-01-31T08:04:20.491Z,82.40
2023-01-31T08:06:51.128Z,81.80
2023-01-31T08:09:18.421Z,80.30
2023-01-31T08:11:46.148Z,79.70
2023-01-31T08:14:13.656Z,78.70
2023-01-31T08:16:41.384Z,77.30
2023-01-31T08:19:09.067Z,77.10
2023-01-31T08:21:36.476Z,75.10
2023-01-31T08:24:04.410Z,74.80
2023-01-31T08:26:31.879Z,74.20
2023-01-31T08:29:00.247Z,74.80
2023-01-31T08:31:29.493Z,75.00
2023-01-31T08:33:57.639Z,74.80
2023-01-31T08:36:27.444Z,74.70
2023-01-31T08:38:55.691Z,74.10
2023-01-31T08:41:25.252Z,73.30
2023-01-31T08:43:56.803Z,72.90
2023-01-31T08:46:30.931Z,73.10
2023-01-31T08:49:00.745Z,72.70
2023-01-31T08:51:29.067Z,71.40
2023-01-31T08:53:56.589Z,72.20
2023-01-31T08:56:26.483Z,72.20
2023-01-31T08:58:54.894Z,73.50
2023-01-31T09:01:23.432Z,75.80
2023-01-31T09:03:56.383Z,78.20
2023-01-31T09:06:26.111Z,78.70
2023-01-31T09:08:55.107Z,79.90
2023-01-31T09:11:22.540Z,80.60
2023-01-31T09:13:51.817Z,81.50
2023-01-31T09:16:21.040Z,82.00
2023-01-31T09:18:48.583Z,82.40
2023-01-31T09:21:22.212Z,82.40
2023-01-31T09:23:54.580Z,82.30
2023-01-31T09:26:21.899Z,82.50
2023-01-31T09:28:51.134Z,82.60
2023-01-31T09:31:23.141Z,82.80
2023-01-31T09:33:50.815Z,83.20
2023-01-31T09:36:21.518Z,83.10
2023-01-31T09:38:53.316Z,82.90
2023-01-31T09:41:44.393Z,81.80
2023-01-31T09:44:17.534Z,81.50
2023-01-31T09:46:52.498Z,80.00
2023-01-31T09:49:37.401Z,79.30
2023-01-31T09:52:05.304Z,79.80
2023-01-31T09:54:38.625Z,79.10
2023-01-31T09:57:12.227Z,78.40
2023-01-31T09:59:51.137Z,78.90
2023-01-31T10:02:44.127Z,78.60
2023-01-31T10:05:30.812Z,78.40
2023-01-31T10:08:15.401Z,78.00
2023-01-31T10:10:51.223Z,77.70
2023-01-31T10:13:41.738Z,76.80
2023-01-31T10:16:23.537Z,76.60
2023-01-31T10:18:59.517Z,76.00
2023-01-31T10:21:40.296Z,75.40
2023-01-31T10:24:23.845Z,74.60
2023-01-31T10:26:56.092Z,75.40
2023-01-31T10:29:36.485Z,74.30
2023-01-31T10:32:11.357Z,74.50
2023-01-31T10:35:14.905Z,73.30
2023-01-31T10:37:52.472Z,72.70
2023-01-31T10:40:27.841Z,72.40
2023-01-31T10:43:01.062Z,72.20
2023-01-31T10:45:33.828Z,72.30
2023-01-31T10:48:22.002Z,72.70
2023-01-31T10:51:09.750Z,71.70
2023-01-31T10:53:56.951Z,71.20
2023-01-31T10:56:34.500Z,70.10
2023-01-31T10:59:07.617Z,71.00
2023-01-31T11:01:36.411Z,68.90
2023-01-31T11:04:22.442Z,69.70
2023-01-31T11:06:51.676Z,69.70
2023-01-31T11:09:21.954Z,67.50
2023-01-31T11:12:01.355Z,69.60
2023-01-31T11:14:32.109Z,69.90
2023-01-31T11:17:07.351Z,69.60
2023-01-31T11:19:41.180Z,69.50
2023-01-31T11:22:18.761Z,69.80
2023-01-31T11:24:49.071Z,68.90
2023-01-31T11:27:40.482Z,69.10
2023-01-31T11:30:27.754Z,67.90
2023-01-31T11:32:55.607Z,65.00
2023-01-31T11:35:25.572Z,65.20
2023-01-31T11:38:02.693Z,65.90
2023-01-31T11:40:33.554Z,66.50
2023-01-31T11:43:03.367Z,66.20
2023-01-31T11:45:37.202Z,66.50
2023-01-31T11:48:18.614Z,65.90
2023-01-31T11:50:52.527Z,66.30
2023-01-31T11:53:36.661Z,66.90
2023-01-31T11:56:22.098Z,68.10
2023-01-31T11:58:54.158Z,69.40
2023-01-31T12:01:24.403Z,69.70
2023-01-31T12:04:02.934Z,70.00
2023-01-31T12:06:41.599Z,70.70
2023-01-31T12:09:24.148Z,71.10
2023-01-31T12:12:00.635Z,71.30
2023-01-31T12:14:42.249Z,71.40
2023-01-31T12:17:15.492Z,71.40
2023-01-31T12:20:25.127Z,71.50
2023-01-31T12:23:09.134Z,72.00
2023-01-31T12:25:42.139Z,71.60
2023-01-31T12:28:31.407Z,71.30
2023-01-31T12:31:43.657Z,71.20
2023-01-31T12:34:13.728Z,72.10
2023-01-31T12:37:03.007Z,71.80
2023-01-31T12:40:23.890Z,72.00
2023-01-31T12:43:01.229Z,71.90
2023-01-31T12:46:04.087Z,72.00
2023-01-31T12:48:40.566Z,71.80
2023-01-31T12:51:41.556Z,72.90
2023-01-31T12:54:17.985Z,72.00
2023-01-31T12:56:56.152Z,72.10
2023-01-31T12:59:43.918Z,71.80
2023-01-31T13:02:36.421Z,71.60
2023-01-31T13:05:28.354Z,72.30
2023-01-31T13:08:17.964Z,72.00
2023-01-31T13:10:52.563Z,71.00
2023-01-31T13:13:26.693Z,70.40
2023-01-31T13:16:23.829Z,70.90
2023-01-31T13:18:54.495Z,70.50
2023-01-31T13:21:27.206Z,70.80
2023-01-31T13:24:05.396Z,70.70
2023-01-31T13:26:36.340Z,71.10
2023-01-31T13:29:10.657Z,69.90
2023-01-31T13:31:46.718Z,70.10
2023-01-31T13:35:01.900Z,70.00
2023-01-31T13:37:33.339Z,69.70
2023-01-31T13:40:18.693Z,69.90
2023-01-31T13:42:46.275Z,69.40
2023-01-31T13:45:29.411Z,69.20
2023-01-31T13:48:05.683Z,70.00
2023-01-31T13:50:57.808Z,70.10
2023-01-31T13:53:35.640Z,69.50
2023-01-31T13:56:08.555Z,70.70
2023-01-31T13:58:37.425Z,69.30
2023-01-31T14:01:15.600Z,69.20
2023-01-31T14:04:15.007Z,69.40
2023-01-31T14:06:57.314Z,67.80
2023-01-31T14:09:29.190Z,68.40
2023-01-31T14:12:02.006Z,69.00
2023-01-31T14:14:41.982Z,68.50
2023-01-31T14:17:09.263Z,68.50
2023-01-31T14:19:43.012Z,68.40
2023-01-31T14:22:19.754Z,67.90
2023-01-31T14:24:47.025Z,67.70
2023-01-31T14:27:20.050Z,67.50
2023-01-31T14:29:57.978Z,67.40
2023-01-31T14:32:42.832Z,67.60
2023-01-31T14:35:27.920Z,68.00
2023-01-31T14:38:07.508Z,67.70
2023-01-31T14:40:47.029Z,67.20
2023-01-31T14:43:39.284Z,67.10
2023-01-31T14:46:19.496Z,66.70
2023-01-31T14:49:08.868Z,67.10
2023-01-31T14:52:10.519Z,66.40
2023-01-31T14:55:04.576Z,67.10
2023-01-31T14:57:38.398Z,66.90
2023-01-31T15:00:14.991Z,67.40
2023-01-31T15:03:12.727Z,67.40
2023-01-31T15:05:44.236Z,67.50
2023-01-31T15:08:11.521Z,67.60
2023-01-31T15:11:05.241Z,68.30
2023-01-31T15:13:51.495Z,68.20
2023-01-31T15:16:31.309Z,68.30
2023-01-31T15:19:14.427Z,68.70
2023-01-31T15:21:50.654Z,68.50
2023-01-31T15:24:35.360Z,68.30
2023-01-31T15:27:08.892Z,68.50
2023-01-31T15:29:51.801Z,68.70
2023-01-31T15:32:29.982Z,68.70
2023-01-31T15:35:07.462Z,69.10
2023-01-31T15:37:36.847Z,69.30
2023-01-31T15:40:24.854Z,69.50
2023-01-31T15:42:52.532Z,69.30
2023-01-31T15:45:30.007Z,69.70
2023-01-31T15:48:14.786Z,70.00
2023-01-31T15:50:56.451Z,70.00
2023-01-31T15:53:26.299Z,70.10
2023-01-31T15:56:00.225Z,70.20
2023-01-31T15:58:30.068Z,70.30
2023-01-31T16:01:02.583Z,70.60
2023-01-31T16:03:36.710Z,70.50
2023-01-31T16:06:04.835Z,70.80
2023-01-31T16:08:39.777Z,70.90
2023-01-31T16:11:09.981Z,71.20
2023-01-31T16:13:39.573Z,71.00
2023-01-31T16:16:14.255Z,71.10
2023-01-31T16:18:45.747Z,71.20
2023-01-31T16:21:24.642Z,71.50
2023-01-31T16:24:00.877Z,70.90
2023-01-31T16:26:33.990Z,71.40
2023-01-31T16:29:13.739Z,70.80
2023-01-31T16:31:51.209Z,71.00
2023-01-31T16:34:38.820Z,71.10
2023-01-31T16:37:09.471Z,70.70
2023-01-31T16:39:50.649Z,71.00
2023-01-31T16:42:23.752Z,70.70
2023-01-31T16:44:51.907Z,70.80
2023-01-31T16:47:34.637Z,70.60
2023-01-31T16:50:17.298Z,70.60
2023-01-31T16:52:48.428Z,70.00
2023-01-31T16:55:17.255Z,70.10
2023-01-31T16:57:45.183Z,69.90
2023-01-31T17:00:24.975Z,69.90
2023-01-31T17:02:58.009Z,69.90
2023-01-31T17:05:29.103Z,69.80
2023-01-31T17:07:58.061Z,69.30
2023-01-31T17:10:31.913Z,68.70
2023-01-31T17:13:16.867Z,68.90
2023-01-31T17:15:44.186Z,67.80
2023-01-31T17:18:12.148Z,67.60
2023-01-31T17:20:45.317Z,67.40
2023-01-31T17:23:13.799Z,67.10
2023-01-31T17:25:42.744Z,67.20
2023-01-31T17:28:10.950Z,67.20
2023-01-31T17:30:41.460Z,67.30
2023-01-31T17:33:18.053Z,66.50
2023-01-31T17:35:49.927Z,66.80
2023-01-31T17:38:17.542Z,66.80
2023-01-31T17:40:46.439Z,66.40
2023-01-31T17:43:22.035Z,66.70
2023-01-31T17:45:49.523Z,66.50
2023-01-31T17:48:26.239Z,66.60
2023-01-31T17:50:57.939Z,66.70
2023-01-31T17:53:25.383Z,68.50
2023-01-31T17:55:53.051Z,70.40
2023-01-31T17:58:20.644Z,71.30
2023-01-31T18:00:48.165Z,73.20
2023-01-31T18:03:24.321Z,76.10
2023-01-31T18:05:52.473Z,77.60
2023-01-31T18:08:20.312Z,79.40
2023-01-31T18:10:47.831Z,80.10
2023-01-31T18:13:15.260Z,81.10
2023-01-31T18:15:42.787Z,81.60
2023-01-31T18:18:10.349Z,82.10
2023-01-31T18:20:39.463Z,82.10
2023-01-31T18:23:07.167Z,82.40
2023-01-31T18:25:34.635Z,82.80
2023-01-31T18:28:01.925Z,82.70
2023-01-31T18:30:29.250Z,81.80
2023-01-31T18:32:57.763Z,81.70
2023-01-31T18:35:25.083Z,81.30
2023-01-31T18:37:52.725Z,81.00
2023-01-31T18:40:20.212Z,80.20
2023-01-31T18:42:47.444Z,79.90
2023-01-31T18:45:15.122Z,79.50
2023-01-31T18:47:42.386Z,77.70
2023-01-31T18:50:10.256Z,77.40
2023-01-31T18:52:44.121Z,76.70
2023-01-31T18:55:11.492Z,76.30
2023-01-31T18:57:38.936Z,75.90
2023-01-31T19:00:06.792Z,75.50
2023-01-31T19:02:34.053Z,75.40
2023-01-31T19:05:02.100Z,75.60
2023-01-31T19:07:32.223Z,75.70
2023-01-31T19:10:04.240Z,75.30
2023-01-31T19:12:32.551Z,75.40
2023-01-31T19:14:59.856Z,75.40
2023-01-31T19:17:27.221Z,75.10
2023-01-31T19:19:54.929Z,74.80
2023-01-31T19:22:24.477Z,75.00
2023-01-31T19:24:51.741Z,74.40
2023-01-31T19:27:18.986Z,74.10
2023-01-31T19:29:46.262Z,74.00
2023-01-31T19:32:13.519Z,74.10
2023-01-31T19:34:40.832Z,73.60
2023-01-31T19:37:08.174Z,73.40
2023-01-31T19:39:35.939Z,73.30
2023-01-31T19:42:04.821Z,73.30
2023-01-31T19:44:32.282Z,73.20
2023-01-31T19:46:59.741Z,73.10
2023-01-31T19:49:27.188Z,73.10
2023-01-31T19:51:54.889Z,73.20
2023-01-31T19:54:22.704Z,72.80
2023-01-31T19:56:50.150Z,72.70
2023-01-31T19:59:19.785Z,72.50
2023-01-31T20:01:47.203Z,72.50
2023-01-31T20:04:14.605Z,72.30
2023-01-31T20:06:42.072Z,72.10
2023-01-31T20:09:09.809Z,72.00
2023-01-31T20:11:37.338Z,72.10
2023-01-31T20:14:06.139Z,72.60
2023-01-31T20:16:33.525Z,72.30
2023-01-31T20:19:01.534Z,72.40
2023-01-31T20:21:29.045Z,72.70
2023-01-31T20:23:56.309Z,72.70
2023-01-31T20:26:24.566Z,72.90
2023-01-31T20:28:52.102Z,73.30
2023-01-31T20:31:20.066Z,73.50
2023-01-31T20:33:47.504Z,73.90
2023-01-31T20:36:15.357Z,74.10
2023-01-31T20:38:42.615Z,74.40
2023-01-31T20:41:10.622Z,74.60
2023-01-31T20:43:38.607Z,74.50
2023-01-31T20:46:14.851Z,74.80
2023-01-31T20:48:45.325Z,75.10
2023-01-31T20:51:12.622Z,75.80
2023-01-31T20:53:40.259Z,75.30
2023-01-31T20:56:10.072Z,75.50
2023-01-31T20:58:39.540Z,75.40
2023-01-31T21:01:08.010Z,75.60
2023-01-31T21:03:36.349Z,75.80
2023-01-31T21:06:05.159Z,75.80
2023-01-31T21:08:35.436Z,75.90
2023-01-31T21:11:09.743Z,76.00
2023-01-31T21:13:38.332Z,76.20
2023-01-31T21:16:07.805Z,76.00
2023-01-31T21:18:37.965Z,75.80
2023-01-31T21:21:11.378Z,76.00
2023-01-31T21:23:40.411Z,75.90
2023-01-31T21:26:10.130Z,76.10
2023-01-31T21:28:39.738Z,76.20
2023-01-31T21:31:11.055Z,76.40
2023-01-31T21:33:38.600Z,76.50
2023-01-31T21:36:10.993Z,76.80
2023-01-31T21:38:39.880Z,77.00
2023-01-31T21:41:26.583Z,77.10
2023-01-31T21:43:55.298Z,77.30
2023-01-31T21:46:23.558Z,77.50
2023-01-31T21:48:51.555Z,77.90
2023-01-31T21:51:24.489Z,78.20
2023-01-31T21:53:53.088Z,78.30
2023-01-31T21:56:26.062Z,78.40
2023-01-31T21:58:54.829Z,78.40
2023-01-31T22:01:26.333Z,79.10
2023-01-31T22:03:55.163Z,78.50
2023-01-31T22:06:31.208Z,78.70
2023-01-31T22:09:00.933Z,78.80
2023-01-31T22:11:33.380Z,79.00
2023-01-31T22:14:02.653Z,79.20
2023-01-31T22:16:30.883Z,79.30
2023-01-31T22:19:00.780Z,79.70
2023-01-31T22:21:34.482Z,79.70
2023-01-31T22:24:03.719Z,80.20
2023-01-31T22:26:34.643Z,80.10
2023-01-31T22:29:05.054Z,80.30
2023-01-31T22:31:33.613Z,80.60
2023-01-31T22:34:01.335Z,80.60
2023-01-31T22:36:29.222Z,81.50
2023-01-31T22:38:56.759Z,81.10
2023-01-31T22:41:24.945Z,81.30
2023-01-31T22:43:53.414Z,81.30
2023-01-31T22:46:23.988Z,81.30
2023-01-31T22:48:52.278Z,81.40
2023-01-31T22:51:22.389Z,81.50
2023-01-31T22:53:50.355Z,81.70
2023-01-31T22:56:20.799Z,81.70
2023-01-31T22:58:48.645Z,81.90
2023-01-31T23:01:21.683Z,82.20
2023-01-31T23:03:50.029Z,82.00
2023-01-31T23:06:18.594Z,82.10
2023-01-31T23:08:45.926Z,82.50
2023-01-31T23:11:15.740Z,82.80
2023-01-31T23:13:44.079Z,83.10
2023-01-31T23:16:20.455Z,83.20
2023-01-31T23:18:47.930Z,83.30
2023-01-31T23:21:18.587Z,83.40
2023-01-31T23:23:46.573Z,83.60
2023-01-31T23:26:14.238Z,83.70
2023-01-31T23:28:41.793Z,83.80
2023-01-31T23:31:09.251Z,83.80
2023-01-31T23:33:36.737Z,84.00
2023-01-31T23:36:04.442Z,84.00
2023-01-31T23:38:31.713Z,84.00
2023-01-31T23:40:59.241Z,84.30
2023-01-31T23:43:26.506Z,84.20
2023-01-31T23:45:53.795Z,84.30
2023-01-31T23:48:21.123Z,84.30
2023-01-31T23:50:48.362Z,84.50
2023-01-31T23:53:16.024Z,84.40
2023-01-31T23:55:43.302Z,84.50
2023-01-31T23:58:10.712Z,84.40
